createdAt,value
2019-03-31T00:00:06.343Z,6.08
2019-03-31T00:02:35.763Z,6.03
2019-03-31T00:05:05.285Z,6.00
2019-03-31T00:07:34.706Z,6.01
2019-03-31T00:10:06.299Z,5.97
2019-03-31T00:12:35.744Z,5.97
2019-03-31T00:15:07.199Z,5.99
2019-03-31T00:17:36.644Z,5.97
2019-03-31T00:20:06.064Z,5.99
2019-03-31T00:22:35.509Z,5.97
2019-03-31T00:25:05.703Z,5.95
2019-03-31T00:27:35.158Z,5.96
2019-03-31T00:30:05.422Z,5.92
2019-03-31T00:32:34.874Z,5.87
2019-03-31T00:35:04.298Z,5.84
2019-03-31T00:37:33.751Z,5.82
2019-03-31T00:40:04.205Z,5.74
2019-03-31T00:42:33.656Z,5.75
2019-03-31T00:45:03.070Z,5.78
2019-03-31T00:47:32.518Z,5.75
2019-03-31T00:50:01.934Z,5.75
2019-03-31T00:52:31.376Z,5.72
2019-03-31T00:55:00.788Z,5.68
2019-03-31T00:57:30.239Z,5.69
2019-03-31T00:59:59.727Z,5.70
2019-03-31T01:02:30.810Z,5.72
2019-03-31T01:05:00.295Z,5.74
2019-03-31T01:07:29.733Z,5.75
2019-03-31T01:09:59.147Z,5.73
2019-03-31T01:12:28.593Z,5.72
2019-03-31T01:14:58.015Z,5.70
2019-03-31T01:17:27.834Z,5.69
2019-03-31T01:19:57.813Z,5.72
2019-03-31T01:22:27.253Z,5.72
2019-03-31T01:24:56.676Z,5.69
2019-03-31T01:27:26.295Z,5.70
2019-03-31T01:29:55.715Z,5.63
2019-03-31T01:32:25.330Z,5.70
2019-03-31T01:34:54.746Z,5.64
2019-03-31T01:37:24.194Z,5.62
2019-03-31T01:39:53.981Z,5.55
2019-03-31T01:42:23.436Z,5.50
2019-03-31T01:44:52.861Z,5.46
2019-03-31T01:47:22.311Z,5.42
2019-03-31T01:49:51.736Z,5.41
2019-03-31T01:52:21.189Z,5.39
2019-03-31T01:54:50.604Z,5.36
2019-03-31T01:57:20.048Z,5.33
2019-03-31T01:59:49.698Z,5.37
2019-03-31T02:02:20.773Z,5.34
2019-03-31T02:04:51.689Z,5.33
2019-03-31T02:07:21.138Z,5.30
2019-03-31T02:09:50.582Z,5.32
2019-03-31T02:12:20.543Z,5.28
2019-03-31T02:14:49.991Z,5.27
2019-03-31T02:17:20.527Z,5.29
2019-03-31T02:19:49.984Z,5.30
2019-03-31T02:22:19.597Z,5.26
2019-03-31T02:24:49.040Z,5.29
2019-03-31T02:27:18.542Z,5.32
2019-03-31T02:29:47.984Z,5.32
2019-03-31T02:32:24.235Z,5.28
2019-03-31T02:34:49.751Z,5.21
2019-03-31T02:37:19.171Z,5.21
2019-03-31T02:39:48.624Z,5.30
2019-03-31T02:42:18.046Z,5.28
2019-03-31T02:44:49.095Z,5.27
2019-03-31T02:47:18.599Z,5.40
2019-03-31T02:49:48.044Z,5.42
2019-03-31T02:52:17.458Z,5.55
2019-03-31T02:54:46.930Z,5.63
2019-03-31T02:57:17.332Z,5.76
2019-03-31T02:59:46.835Z,5.85
2019-03-31T03:02:16.252Z,5.90
2019-03-31T03:04:45.953Z,5.94
2019-03-31T03:07:15.641Z,5.97
2019-03-31T03:09:45.254Z,5.99
2019-03-31T03:12:14.677Z,6.00
2019-03-31T03:14:44.125Z,6.04
2019-03-31T03:17:13.534Z,6.12
2019-03-31T03:19:43.120Z,6.21
2019-03-31T03:22:12.533Z,6.32
2019-03-31T03:24:41.977Z,6.40
2019-03-31T03:27:11.390Z,6.48
2019-03-31T03:29:40.834Z,6.53
2019-03-31T03:32:10.266Z,6.56
2019-03-31T03:34:39.690Z,6.56
2019-03-31T03:37:09.110Z,6.68
2019-03-31T03:39:38.552Z,6.83
2019-03-31T03:42:07.959Z,6.89
2019-03-31T03:44:37.397Z,6.99
2019-03-31T03:47:06.807Z,7.14
2019-03-31T03:49:36.248Z,7.23
2019-03-31T03:52:05.661Z,7.37
2019-03-31T03:54:35.203Z,7.45
2019-03-31T03:57:04.727Z,7.50
2019-03-31T03:59:34.146Z,7.54
2019-03-31T04:02:03.593Z,7.61
2019-03-31T04:04:33.023Z,7.73
2019-03-31T04:07:02.459Z,7.77
2019-03-31T04:09:31.870Z,7.84
2019-03-31T04:12:01.334Z,7.88
2019-03-31T04:14:30.745Z,7.88
2019-03-31T04:17:00.193Z,7.94
2019-03-31T04:19:29.607Z,7.90
2019-03-31T04:21:59.052Z,7.94
2019-03-31T04:24:28.465Z,7.98
2019-03-31T04:26:57.913Z,8.03
2019-03-31T04:29:27.319Z,8.06
2019-03-31T04:31:56.765Z,8.10
2019-03-31T04:34:26.220Z,8.15
2019-03-31T04:36:55.653Z,8.13
2019-03-31T04:39:25.184Z,8.13
2019-03-31T04:41:54.683Z,8.13
2019-03-31T04:44:24.088Z,8.15
2019-03-31T04:46:53.539Z,8.15
2019-03-31T04:49:23.058Z,8.21
2019-03-31T04:51:53.799Z,8.24
2019-03-31T04:54:23.820Z,8.25
2019-03-31T04:56:53.259Z,8.31
2019-03-31T04:59:22.682Z,8.38
2019-03-31T05:01:52.115Z,8.44
2019-03-31T05:04:21.543Z,8.56
2019-03-31T05:06:50.982Z,8.60
2019-03-31T05:09:20.391Z,8.63
2019-03-31T05:11:49.839Z,8.66
2019-03-31T05:14:19.262Z,8.72
2019-03-31T05:16:48.699Z,8.81
2019-03-31T05:19:18.515Z,8.78
2019-03-31T05:21:47.956Z,8.79
2019-03-31T05:24:17.367Z,8.86
2019-03-31T05:26:46.884Z,8.80
2019-03-31T05:29:16.678Z,8.85
2019-03-31T05:31:46.124Z,8.93
2019-03-31T05:34:19.256Z,9.04
2019-03-31T05:36:46.752Z,9.15
2019-03-31T05:39:16.167Z,9.22
2019-03-31T05:41:45.911Z,9.28
2019-03-31T05:44:15.531Z,9.27
2019-03-31T05:46:45.016Z,9.30
2019-03-31T05:49:14.441Z,9.21
2019-03-31T05:51:43.881Z,9.26
2019-03-31T05:54:13.296Z,9.36
2019-03-31T05:56:43.008Z,9.47
2019-03-31T05:59:12.423Z,9.47
2019-03-31T06:01:41.862Z,9.43
2019-03-31T06:04:11.281Z,9.52
2019-03-31T06:06:40.737Z,9.59
2019-03-31T06:09:10.154Z,9.66
2019-03-31T06:11:39.886Z,9.71
2019-03-31T06:14:09.305Z,9.81
2019-03-31T06:16:38.748Z,9.88
2019-03-31T06:19:08.192Z,9.94
2019-03-31T06:21:37.650Z,10.01
2019-03-31T06:24:07.104Z,10.07
2019-03-31T06:26:36.527Z,10.10
2019-03-31T06:29:05.973Z,10.17
2019-03-31T06:31:35.398Z,10.24
2019-03-31T06:34:04.854Z,10.33
2019-03-31T06:36:34.268Z,10.44
2019-03-31T06:39:06.055Z,10.49
2019-03-31T06:41:35.544Z,10.56
2019-03-31T06:44:04.988Z,10.57
2019-03-31T06:46:34.404Z,10.63
2019-03-31T06:49:03.862Z,10.76
2019-03-31T06:51:33.282Z,10.85
2019-03-31T06:54:02.726Z,10.99
2019-03-31T06:56:32.142Z,11.07
2019-03-31T06:59:01.601Z,11.24
2019-03-31T07:01:31.024Z,11.34
2019-03-31T07:04:00.474Z,11.39
2019-03-31T07:06:29.888Z,11.38
2019-03-31T07:08:59.336Z,11.38
2019-03-31T07:11:28.750Z,11.45
2019-03-31T07:13:58.197Z,11.58
2019-03-31T07:16:27.628Z,11.69
2019-03-31T07:18:58.365Z,11.68
2019-03-31T07:21:27.781Z,11.73
2019-03-31T07:23:57.245Z,11.74
2019-03-31T07:26:26.671Z,11.73
2019-03-31T07:28:56.122Z,11.69
2019-03-31T07:31:25.536Z,11.77
2019-03-31T07:33:54.992Z,11.91
2019-03-31T07:36:24.411Z,11.91
2019-03-31T07:38:54.006Z,11.94
2019-03-31T07:41:23.907Z,12.01
2019-03-31T07:43:53.398Z,11.95
2019-03-31T07:46:22.811Z,11.91
2019-03-31T07:48:52.273Z,11.87
2019-03-31T07:51:21.699Z,11.94
2019-03-31T07:53:51.140Z,12.17
2019-03-31T07:56:20.566Z,12.31
2019-03-31T07:58:50.054Z,12.34
2019-03-31T08:01:19.887Z,12.48
2019-03-31T08:03:49.331Z,12.55
2019-03-31T08:06:18.753Z,12.55
2019-03-31T08:08:48.216Z,12.66
2019-03-31T08:11:17.639Z,12.90
2019-03-31T08:13:47.082Z,12.90
2019-03-31T08:16:16.998Z,12.93
2019-03-31T08:18:46.443Z,12.90
2019-03-31T08:21:15.892Z,12.87
2019-03-31T08:23:45.690Z,12.94
2019-03-31T08:26:15.135Z,13.08
2019-03-31T08:28:44.557Z,13.27
2019-03-31T08:31:14.004Z,13.43
2019-03-31T08:33:43.418Z,13.50
2019-03-31T08:36:12.860Z,13.39
2019-03-31T08:38:42.286Z,13.77
2019-03-31T08:41:11.736Z,13.82
2019-03-31T08:43:41.164Z,13.90
2019-03-31T08:46:10.628Z,14.04
2019-03-31T08:48:40.160Z,14.12
2019-03-31T08:51:09.810Z,14.20
2019-03-31T08:53:39.329Z,14.47
2019-03-31T08:56:09.021Z,14.41
2019-03-31T08:58:38.598Z,14.04
2019-03-31T09:01:09.899Z,14.22
2019-03-31T09:03:39.614Z,14.31
2019-03-31T09:06:09.266Z,14.28
2019-03-31T09:08:38.894Z,14.46
2019-03-31T09:11:08.346Z,14.75
2019-03-31T09:13:37.779Z,14.54
2019-03-31T09:16:07.424Z,14.41
2019-03-31T09:18:36.950Z,13.74
2019-03-31T09:21:06.611Z,13.77
2019-03-31T09:23:36.160Z,13.37
2019-03-31T09:26:05.616Z,13.25
2019-03-31T09:28:35.035Z,13.05
2019-03-31T09:31:05.024Z,13.43
2019-03-31T09:33:34.642Z,13.57
2019-03-31T09:36:15.407Z,13.88
2019-03-31T09:38:35.417Z,14.66
2019-03-31T09:41:04.859Z,14.47
2019-03-31T09:43:34.283Z,14.34
2019-03-31T09:46:03.730Z,14.01
2019-03-31T09:48:33.146Z,14.55
2019-03-31T09:51:02.669Z,15.47
2019-03-31T09:53:32.084Z,16.29
2019-03-31T09:56:01.528Z,16.11
2019-03-31T09:58:30.955Z,15.52
2019-03-31T10:01:00.396Z,15.46
2019-03-31T10:03:29.819Z,15.43
2019-03-31T10:06:09.984Z,14.49
2019-03-31T10:08:30.409Z,14.43
2019-03-31T10:11:02.720Z,14.44
2019-03-31T10:13:31.156Z,14.29
2019-03-31T10:16:00.581Z,15.15
2019-03-31T10:18:30.026Z,15.56
2019-03-31T10:20:59.505Z,16.05
2019-03-31T10:23:28.971Z,16.44
2019-03-31T10:25:58.392Z,15.80
2019-03-31T10:28:27.848Z,15.10
2019-03-31T10:30:57.264Z,14.97
2019-03-31T10:33:26.705Z,14.53
2019-03-31T10:35:56.122Z,14.58
2019-03-31T10:38:25.560Z,14.23
2019-03-31T10:40:54.975Z,13.96
2019-03-31T10:43:24.519Z,14.35
2019-03-31T10:45:53.943Z,14.60
2019-03-31T10:48:23.724Z,14.32
2019-03-31T10:50:53.133Z,14.68
2019-03-31T10:53:23.130Z,15.76
2019-03-31T10:55:52.863Z,16.88
2019-03-31T10:58:22.425Z,17.18
2019-03-31T11:00:51.836Z,16.50
2019-03-31T11:03:21.284Z,16.06
2019-03-31T11:05:50.705Z,15.11
2019-03-31T11:08:20.170Z,14.69
2019-03-31T11:10:49.572Z,14.06
2019-03-31T11:13:19.028Z,14.16
2019-03-31T11:15:48.449Z,14.43
2019-03-31T11:18:17.901Z,14.83
2019-03-31T11:20:47.308Z,14.60
2019-03-31T11:23:17.899Z,14.53
2019-03-31T11:25:47.395Z,14.16
2019-03-31T11:28:16.838Z,13.96
2019-03-31T11:30:46.550Z,13.99
2019-03-31T11:33:15.957Z,13.78
2019-03-31T11:35:45.372Z,13.79
2019-03-31T11:38:14.814Z,13.68
2019-03-31T11:40:44.253Z,13.77
2019-03-31T11:43:13.943Z,13.62
2019-03-31T11:45:43.388Z,13.62
2019-03-31T11:48:12.808Z,13.94
2019-03-31T11:50:42.251Z,13.80
2019-03-31T11:53:11.666Z,13.65
2019-03-31T11:55:41.116Z,13.51
2019-03-31T11:58:10.523Z,13.51
2019-03-31T12:00:41.603Z,13.43
2019-03-31T12:03:11.022Z,13.29
2019-03-31T12:05:40.463Z,13.23
2019-03-31T12:08:09.909Z,13.08
2019-03-31T12:10:39.358Z,12.92
2019-03-31T12:13:08.771Z,12.90
2019-03-31T12:15:38.237Z,12.98
2019-03-31T12:18:07.647Z,12.84
2019-03-31T12:20:37.100Z,12.80
2019-03-31T12:23:06.512Z,12.85
2019-03-31T12:25:35.959Z,12.93
2019-03-31T12:28:05.376Z,12.96
2019-03-31T12:30:34.813Z,13.16
2019-03-31T12:33:04.221Z,13.26
2019-03-31T12:35:33.667Z,13.73
2019-03-31T12:38:03.071Z,15.54
2019-03-31T12:40:34.809Z,15.48
2019-03-31T12:43:04.586Z,15.48
2019-03-31T12:45:34.040Z,14.62
2019-03-31T12:48:03.449Z,14.04
2019-03-31T12:50:32.915Z,13.60
2019-03-31T12:53:02.299Z,13.21
2019-03-31T12:55:31.732Z,12.76
2019-03-31T12:58:01.145Z,12.57
2019-03-31T13:00:30.585Z,12.39
2019-03-31T13:03:00.002Z,12.37
2019-03-31T13:05:29.446Z,12.33
2019-03-31T13:07:58.879Z,12.16
2019-03-31T13:10:28.314Z,12.01
2019-03-31T13:12:57.901Z,12.05
2019-03-31T13:15:27.361Z,12.07
2019-03-31T13:17:56.775Z,12.11
2019-03-31T13:20:26.223Z,12.38
2019-03-31T13:22:55.627Z,12.65
2019-03-31T13:25:25.131Z,12.64
2019-03-31T13:27:54.711Z,12.64
2019-03-31T13:30:24.155Z,12.56
2019-03-31T13:32:53.563Z,12.34
2019-03-31T13:35:23.012Z,12.30
2019-03-31T13:37:52.428Z,12.22
2019-03-31T13:40:21.869Z,12.23
2019-03-31T13:42:51.278Z,12.26
2019-03-31T13:45:21.006Z,12.15
2019-03-31T13:47:50.449Z,12.08
2019-03-31T13:50:21.198Z,11.92
2019-03-31T13:52:50.637Z,11.99
2019-03-31T13:55:20.051Z,12.13
2019-03-31T13:57:50.471Z,12.29
2019-03-31T14:00:40.397Z,12.30
2019-03-31T14:03:10.033Z,12.24
2019-03-31T14:05:39.450Z,12.11
2019-03-31T14:08:08.887Z,12.15
2019-03-31T14:10:38.294Z,12.25
2019-03-31T14:13:07.735Z,12.55
2019-03-31T14:15:37.150Z,12.62
2019-03-31T14:18:06.582Z,12.45
2019-03-31T14:20:35.993Z,12.18
2019-03-31T14:23:05.422Z,11.94
2019-03-31T14:25:34.837Z,11.96
2019-03-31T14:28:04.292Z,12.06
2019-03-31T14:30:33.702Z,12.34
2019-03-31T14:33:03.153Z,12.69
2019-03-31T14:35:32.573Z,13.03
2019-03-31T14:38:02.020Z,13.26
2019-03-31T14:40:31.433Z,13.39
2019-03-31T14:43:00.872Z,13.54
2019-03-31T14:45:34.143Z,13.73
2019-03-31T14:48:03.541Z,14.01
2019-03-31T14:50:36.639Z,14.00
2019-03-31T14:53:06.125Z,14.06
2019-03-31T14:55:35.599Z,14.16
2019-03-31T14:58:08.095Z,14.37
2019-03-31T15:00:36.143Z,14.60
2019-03-31T15:03:05.598Z,14.57
2019-03-31T15:05:35.008Z,14.68
2019-03-31T15:08:04.461Z,14.72
2019-03-31T15:10:33.877Z,15.26
2019-03-31T15:13:03.334Z,14.92
2019-03-31T15:15:32.828Z,14.92
2019-03-31T15:18:02.271Z,14.78
2019-03-31T15:20:31.680Z,14.58
2019-03-31T15:23:01.131Z,14.48
2019-03-31T15:25:30.541Z,14.42
2019-03-31T15:28:00.590Z,13.93
2019-03-31T15:30:29.999Z,13.77
2019-03-31T15:32:59.449Z,13.39
2019-03-31T15:35:28.871Z,13.38
2019-03-31T15:37:58.333Z,13.40
2019-03-31T15:40:27.769Z,13.41
2019-03-31T15:42:57.212Z,13.29
2019-03-31T15:45:27.731Z,13.35
2019-03-31T15:47:57.201Z,13.34
2019-03-31T15:50:26.610Z,13.15
2019-03-31T15:52:56.053Z,12.96
2019-03-31T15:55:25.459Z,12.76
2019-03-31T15:57:54.909Z,12.63
2019-03-31T16:00:24.332Z,12.49
2019-03-31T16:02:53.787Z,12.52
2019-03-31T16:05:23.194Z,12.43
2019-03-31T16:07:52.651Z,12.45
2019-03-31T16:10:22.096Z,12.50
2019-03-31T16:12:51.544Z,12.57
2019-03-31T16:15:21.128Z,12.46
2019-03-31T16:17:50.993Z,12.47
2019-03-31T16:20:20.408Z,12.46
2019-03-31T16:22:49.855Z,12.38
2019-03-31T16:25:29.936Z,12.31
2019-03-31T16:27:59.386Z,12.27
2019-03-31T16:30:29.182Z,12.12
2019-03-31T16:32:58.618Z,12.05
2019-03-31T16:35:28.072Z,11.95
2019-03-31T16:37:57.514Z,11.81
2019-03-31T16:40:26.960Z,11.79
2019-03-31T16:42:56.383Z,11.72
2019-03-31T16:45:25.831Z,11.63
2019-03-31T16:47:55.246Z,11.55
2019-03-31T16:50:24.701Z,11.47
2019-03-31T16:52:54.116Z,11.37
2019-03-31T16:55:23.639Z,11.29
2019-03-31T16:57:53.056Z,11.15
2019-03-31T17:00:22.513Z,11.01
2019-03-31T17:02:51.929Z,10.96
2019-03-31T17:05:22.509Z,10.80
2019-03-31T17:07:52.066Z,10.78
2019-03-31T17:10:21.517Z,10.69
2019-03-31T17:12:50.927Z,10.64
2019-03-31T17:15:20.371Z,10.54
2019-03-31T17:17:49.797Z,10.52
2019-03-31T17:20:19.250Z,10.38
2019-03-31T17:22:48.683Z,10.27
2019-03-31T17:25:18.134Z,10.19
2019-03-31T17:27:47.558Z,10.12
2019-03-31T17:30:17.004Z,10.07
2019-03-31T17:32:46.833Z,10.02
2019-03-31T17:35:16.296Z,9.91
2019-03-31T17:37:45.700Z,9.88
2019-03-31T17:40:16.107Z,9.79
2019-03-31T17:42:45.532Z,9.68
2019-03-31T17:45:17.301Z,9.64
2019-03-31T17:47:46.073Z,9.60
2019-03-31T17:50:16.123Z,9.52
2019-03-31T17:52:45.549Z,9.49
2019-03-31T17:55:14.991Z,9.40
2019-03-31T17:57:44.417Z,9.33
2019-03-31T18:00:13.867Z,9.25
2019-03-31T18:02:43.286Z,9.21
2019-03-31T18:05:14.327Z,9.10
2019-03-31T18:07:43.732Z,9.01
2019-03-31T18:10:20.726Z,8.92
2019-03-31T18:12:44.635Z,8.83
2019-03-31T18:15:14.097Z,8.72
2019-03-31T18:17:44.045Z,8.68
2019-03-31T18:20:13.483Z,8.58
2019-03-31T18:22:42.894Z,8.51
2019-03-31T18:25:12.344Z,8.45
2019-03-31T18:27:41.747Z,8.38
2019-03-31T18:30:11.195Z,8.27
2019-03-31T18:32:40.605Z,8.22
2019-03-31T18:35:10.058Z,8.17
2019-03-31T18:37:39.468Z,8.15
2019-03-31T18:40:08.908Z,8.07
2019-03-31T18:42:38.388Z,8.02
2019-03-31T18:45:07.853Z,8.03
2019-03-31T18:47:37.310Z,8.03
2019-03-31T18:50:06.934Z,7.98
2019-03-31T18:52:36.304Z,7.95
2019-03-31T18:55:10.439Z,7.92
2019-03-31T18:57:42.172Z,7.88
2019-03-31T19:00:14.195Z,7.76
2019-03-31T19:02:45.283Z,7.72
2019-03-31T19:05:32.930Z,7.74
2019-03-31T19:08:06.816Z,7.76
2019-03-31T19:10:54.096Z,7.68
2019-03-31T19:13:54.493Z,7.60
2019-03-31T19:16:16.904Z,7.53
2019-03-31T19:18:47.998Z,7.47
2019-03-31T19:21:19.602Z,7.37
2019-03-31T19:23:53.631Z,7.35
2019-03-31T19:26:24.718Z,7.30
2019-03-31T19:28:58.216Z,7.26
2019-03-31T19:31:38.356Z,7.20
2019-03-31T19:34:21.123Z,7.15
2019-03-31T19:36:57.886Z,7.09
2019-03-31T19:39:31.623Z,6.97
2019-03-31T19:42:02.783Z,6.93
2019-03-31T19:44:49.729Z,6.92
2019-03-31T19:47:32.871Z,6.82
2019-03-31T19:50:09.659Z,6.79
2019-03-31T19:52:55.278Z,6.76
2019-03-31T19:55:32.095Z,6.76
2019-03-31T19:58:19.736Z,6.73
2019-03-31T20:01:02.851Z,6.73
2019-03-31T20:03:36.657Z,6.63
2019-03-31T20:06:13.577Z,6.57
2019-03-31T20:08:56.421Z,6.54
2019-03-31T20:11:30.416Z,6.44
2019-03-31T20:14:17.413Z,6.39
2019-03-31T20:17:03.291Z,6.35
2019-03-31T20:19:34.365Z,6.33
2019-03-31T20:22:08.109Z,6.32
2019-03-31T20:24:39.194Z,6.29
2019-03-31T20:27:28.370Z,6.27
2019-03-31T20:30:02.088Z,6.20
2019-03-31T20:32:51.064Z,6.20
2019-03-31T20:35:33.892Z,6.13
2019-03-31T20:38:04.945Z,6.12
2019-03-31T20:40:38.668Z,6.04
2019-03-31T20:43:09.777Z,5.93
2019-03-31T20:45:39.244Z,5.89
2019-03-31T20:48:08.655Z,5.80
2019-03-31T20:50:38.095Z,5.84
2019-03-31T20:53:07.574Z,5.79
2019-03-31T20:55:36.958Z,5.72
2019-03-31T20:58:06.403Z,5.68
2019-03-31T21:00:40.079Z,5.64
2019-03-31T21:03:12.323Z,5.55
2019-03-31T21:05:41.763Z,5.46
2019-03-31T21:08:11.198Z,5.44
2019-03-31T21:10:40.609Z,5.38
2019-03-31T21:13:10.966Z,5.38
2019-03-31T21:15:40.594Z,5.32
2019-03-31T21:18:10.044Z,5.29
2019-03-31T21:20:39.456Z,5.27
2019-03-31T21:23:08.901Z,5.22
2019-03-31T21:25:38.310Z,5.27
2019-03-31T21:28:07.768Z,5.22
2019-03-31T21:30:38.135Z,5.23
2019-03-31T21:33:07.580Z,5.24
2019-03-31T21:35:36.991Z,5.19
2019-03-31T21:38:06.432Z,5.18
2019-03-31T21:40:35.848Z,5.14
2019-03-31T21:43:05.294Z,5.13
2019-03-31T21:45:34.711Z,5.08
2019-03-31T21:48:04.258Z,5.04
2019-03-31T21:50:33.849Z,4.99
2019-03-31T21:53:03.303Z,5.00
2019-03-31T21:55:32.718Z,4.98
2019-03-31T21:58:02.167Z,4.97
2019-03-31T22:00:39.159Z,4.93
2019-03-31T22:03:12.829Z,4.95
2019-03-31T22:05:42.294Z,4.94
2019-03-31T22:08:11.732Z,4.91
2019-03-31T22:10:41.190Z,4.85
2019-03-31T22:13:10.726Z,4.83
2019-03-31T22:15:40.143Z,4.76
2019-03-31T22:18:09.740Z,4.69
2019-03-31T22:20:39.150Z,4.71
2019-03-31T22:23:08.600Z,4.71
2019-03-31T22:25:38.086Z,4.68
2019-03-31T22:28:07.544Z,4.71
2019-03-31T22:30:36.958Z,4.68
2019-03-31T22:33:06.604Z,4.58
2019-03-31T22:35:36.023Z,4.42
2019-03-31T22:38:05.474Z,4.38
2019-03-31T22:40:34.904Z,4.34
2019-03-31T22:43:07.698Z,4.29
2019-03-31T22:45:35.861Z,4.15
2019-03-31T22:48:05.313Z,4.11
2019-03-31T22:50:34.737Z,4.05
2019-03-31T22:53:04.176Z,3.96
2019-03-31T22:55:33.618Z,3.92
2019-03-31T22:58:03.055Z,3.88
2019-03-31T23:00:32.490Z,3.88
2019-03-31T23:03:01.982Z,3.90
2019-03-31T23:05:31.416Z,3.83
2019-03-31T23:08:00.830Z,3.86
2019-03-31T23:10:30.273Z,3.78
2019-03-31T23:12:59.689Z,3.83
2019-03-31T23:15:29.133Z,3.80
2019-03-31T23:17:58.559Z,3.77
2019-03-31T23:20:28.004Z,3.78
2019-03-31T23:22:57.422Z,3.78
2019-03-31T23:25:26.869Z,3.72
2019-03-31T23:27:56.278Z,3.69
2019-03-31T23:30:25.718Z,3.73
2019-03-31T23:32:55.211Z,3.71
2019-03-31T23:35:24.651Z,3.69
2019-03-31T23:37:54.067Z,3.70
2019-03-31T23:40:23.511Z,3.68
2019-03-31T23:42:52.927Z,3.68
2019-03-31T23:45:22.364Z,3.66
2019-03-31T23:47:51.779Z,3.58
2019-03-31T23:50:21.223Z,3.48
2019-03-31T23:52:50.650Z,3.47
2019-03-31T23:55:20.107Z,3.39
2019-03-31T23:57:49.516Z,3.36
